M I D A S
Marine Information and Data Acquisition System
Tripno 1494 of the Zeeleeuw from 2008-05-28 06:27:09 to 2008-05-28 15:19:20
Back to CruiseResearch ActivitiesStationsMapUnderway DataData graphs

EquipmentUnitsComment
TimeDGPSUTC
LatitudeDGPSDM.mWGS84
LongitudeDGPSDM.mWGS84
TemperatureSBE03/SBE38deg celciusITS90
ConductivitySBE21S/mITS90
SalinitySBE21 Practical Salinity Units
ChlorophylAChelsea fluorimeterg/lCalibrated in Aceton
Missing or incorrect values are displayed as -999
Sea surface data collected by the RV Zeeleeuw from 2008-05-28 06:27:47 to 2008-05-28 15:23:53
Time Latitude Longitude Temperature Conductivity Salinity ChlorophylA
2008-05-28 06:28:52 51°13.643 2°55.981 19.309 0.010307 0.057116 -1.766697
2008-05-28 06:29:53 51°13.677 2°55.862 19.3163 0.010307 0.057118 -1.731873
2008-05-28 06:30:52 51°13.691 2°55.762 19.3181 0.010307 0.057119 -1.731873
2008-05-28 06:31:52 51°13.693 2°55.729 19.3377 0.010204 0.0566 -1.766697
2008-05-28 06:32:52 51°13.73 2°55.721 19.3541 0.010307 0.05712 -1.766697
2008-05-28 06:33:52 51°13.826 2°55.64 19.3069 0.010307 0.05712 -1.766697
2008-05-28 06:34:52 51°13.955 2°55.552 19.3103 0.010307 0.05712 -1.731873
2008-05-28 06:35:52 51°14.069 2°55.472 19.3062 0.010307 0.057122 -1.731873
2008-05-28 06:36:52 51°14.155 2°55.407 19.3114 0.010307 0.057122 -1.766697
2008-05-28 06:37:52 51°14.237 2°55.332 19.3045 0.010307 0.057122 -1.731873
2008-05-28 06:38:52 51°14.31 2°55.193 19.2715 0.010307 0.057123 -1.731873
2008-05-28 06:39:52 51°14.408 2°54.998 19.1903 0.010307 0.057123 -1.731873
2008-05-28 06:40:52 51°14.58 2°54.84 19.1664 0.010307 0.057125 -1.766697
2008-05-28 06:41:52 51°14.763 2°54.673 19.2035 0.010307 0.057127 -1.766697
2008-05-28 06:42:52 51°14.95 2°54.524 19.1855 0.010307 0.057129 -1.731873
2008-05-28 06:43:52 51°15.131 2°54.363 19.1863 0.010307 0.057131 -1.766697
2008-05-28 06:44:51 51°15.304 2°54.193 19.1527 0.010307 0.057133 -1.731873
2008-05-28 06:45:52 51°15.49 2°54.03 19.1797 0.010307 0.057137 -1.731873
2008-05-28 06:46:52 51°15.672 2°53.867 19.1865 0.010307 0.057141 -1.766697
2008-05-28 06:47:52 51°15.856 2°53.711 19.1951 0.010307 0.057144 -1.731873
2008-05-28 06:48:53 51°16.037 2°53.543 19.2065 0.010307 0.057147 -1.731873
2008-05-28 06:49:52 51°16.216 2°53.387 19.208 0.010307 0.057151 -1.731873
2008-05-28 06:50:52 51°16.401 2°53.23 19.2086 0.010307 0.057155 -1.731873
2008-05-28 06:51:52 51°16.582 2°53.061 19.2223 0.010307 0.057157 -1.731873
2008-05-28 06:52:53 51°16.771 2°52.9 19.2251 0.010307 0.057161 -1.731873
2008-05-28 06:53:52 51°16.957 2°52.748 19.2285 0.010307 0.057163 -1.731873
2008-05-28 06:54:52 51°17.15 2°52.603 19.2207 0.010307 0.057167 -1.731873
2008-05-28 06:55:53 51°17.352 2°52.473 19.2408 0.010307 0.05717 -1.731873
2008-05-28 06:56:52 51°17.555 2°52.385 19.2446 0.010307 0.057173 -1.731873
2008-05-28 06:57:53 51°17.771 2°52.321 19.2469 0.010307 0.057175 -1.731873
2008-05-28 06:58:52 51°17.982 2°52.278 19.2506 0.010307 0.057177 -1.731873
2008-05-28 06:59:53 51°18.204 2°52.278 19.2624 0.010307 0.057181 -1.766697
2008-05-28 07:00:52 51°18.417 2°52.284 19.2742 0.010307 0.057186 -1.766697
2008-05-28 07:01:52 51°18.634 2°52.305 19.2856 0.010307 0.057188 -1.731873
2008-05-28 07:02:52 51°18.852 2°52.32 19.2994 0.010307 0.05719 -1.731873
2008-05-28 07:03:52 51°19.07 2°52.332 19.2897 0.010307 0.057192 -1.731873
2008-05-28 07:04:53 51°19.294 2°52.344 19.3104 0.010307 0.057193 -1.731873
2008-05-28 07:05:52 51°19.512 2°52.375 19.3223 0.010307 0.057195 -1.731873
2008-05-28 07:06:52 51°19.735 2°52.397 19.3201 0.010307 0.057197 -1.731873
2008-05-28 07:07:52 51°19.957 2°52.432 19.3444 0.010307 0.057197 -1.731873
2008-05-28 07:08:50 51°20.171 2°52.487 19.3544 0.010307 0.0572 -1.731873
2008-05-28 07:09:49 51°20.385 2°52.552 19.3562 0.010307 0.057202 -1.731873
2008-05-28 07:10:49 51°20.601 2°52.618 19.3638 0.010307 0.057204 -1.731873
2008-05-28 07:11:49 51°20.819 2°52.652 19.364 0.010307 0.057205 -1.731873
2008-05-28 07:12:49 51°21.036 2°52.681 19.3845 0.010307 0.057206 -1.731873
2008-05-28 07:13:49 51°21.254 2°52.705 19.3832 0.010307 0.057207 -1.731873
2008-05-28 07:14:49 51°21.474 2°52.733 19.4062 0.010307 0.057208 -1.731873
2008-05-28 07:15:49 51°21.693 2°52.754 19.4118 0.010307 0.057208 -1.731873
2008-05-28 07:16:49 51°21.914 2°52.78 19.4064 0.010307 0.057209 -1.731873
2008-05-28 07:17:49 51°22.137 2°52.81 19.4242 0.010307 0.05721 -1.731873
2008-05-28 07:18:49 51°22.358 2°52.837 19.431 0.010307 0.057212 -1.731873
2008-05-28 07:19:49 51°22.58 2°52.868 19.4459 0.010307 0.057214 -1.731873
2008-05-28 07:20:49 51°22.804 2°52.901 19.4582 0.010307 0.057214 -1.731873
2008-05-28 07:21:49 51°23.025 2°52.93 19.4493 0.010307 0.057217 -1.766697
2008-05-28 07:22:49 51°23.249 2°52.962 19.4612 0.010307 0.05722 -1.766697
2008-05-28 07:23:49 51°23.473 2°52.992 19.4641 0.010307 0.057222 -1.731873
2008-05-28 07:24:49 51°23.697 2°53.031 19.4844 0.010307 0.057224 -1.731873
2008-05-28 07:25:49 51°23.923 2°53.068 19.4941 0.010307 0.057226 -1.766697
2008-05-28 07:26:49 51°24.149 2°53.103 19.5038 0.010307 0.057227 -1.731873
2008-05-28 07:27:49 51°24.372 2°53.137 19.5156 0.010307 0.057228 -1.731873
2008-05-28 07:28:49 51°24.596 2°53.17 19.5152 0.010307 0.057229 -1.766697
2008-05-28 07:29:49 51°24.815 2°53.187 19.5308 0.010307 0.057229 -1.731873
2008-05-28 07:30:49 51°25.037 2°53.204 19.537 0.010307 0.05723 -1.731873
2008-05-28 07:31:49 51°25.257 2°53.215 19.5382 0.010307 0.057229 -1.731873
2008-05-28 07:32:49 51°25.478 2°53.248 19.5404 0.010307 0.057231 -1.731873
2008-05-28 07:33:49 51°25.7 2°53.275 19.5606 0.010307 0.057231 -1.731873
2008-05-28 07:34:49 51°25.923 2°53.303 19.5604 0.010307 0.057231 -1.731873
2008-05-28 07:35:49 51°26.147 2°53.331 19.5845 0.010307 0.057232 -1.766697
2008-05-28 07:36:49 51°26.371 2°53.351 19.5914 0.010307 0.057234 -1.731873
2008-05-28 07:37:49 51°26.592 2°53.379 19.5866 0.010307 0.057237 -1.731873
2008-05-28 07:38:49 51°26.813 2°53.411 19.5885 0.010307 0.057239 -1.731873
2008-05-28 07:39:49 51°27.036 2°53.433 19.6114 0.010307 0.057241 -1.731873
2008-05-28 07:40:49 51°27.257 2°53.464 19.6186 0.010307 0.057243 -1.731873
2008-05-28 07:41:49 51°27.481 2°53.493 19.6114 0.010307 0.057244 -1.766697
2008-05-28 07:42:49 51°27.705 2°53.519 19.6277 0.010307 0.057244 -1.731873
2008-05-28 07:43:49 51°27.927 2°53.547 19.6382 0.010307 0.057244 -1.731873
2008-05-28 07:44:49 51°28.148 2°53.58 19.6468 0.010307 0.057245 -1.766697
2008-05-28 07:45:49 51°28.371 2°53.619 19.6488 0.010307 0.057247 -1.766697
2008-05-28 07:46:49 51°28.593 2°53.649 19.6582 0.010307 0.057249 -1.731873
2008-05-28 07:47:49 51°28.813 2°53.67 19.6621 0.010307 0.057249 -1.731873
2008-05-28 07:48:49 51°29.034 2°53.689 19.6819 0.010307 0.057252 -1.766697
2008-05-28 07:49:49 51°29.256 2°53.71 19.6872 0.010307 0.057254 -1.731873
2008-05-28 07:50:49 51°29.478 2°53.731 19.6826 0.010307 0.057255 -1.731873
2008-05-28 07:51:49 51°29.699 2°53.757 19.7017 0.010307 0.057257 -1.731873
2008-05-28 07:52:49 51°29.921 2°53.783 19.707 0.010307 0.057258 -1.731873
2008-05-28 07:53:49 51°30.143 2°53.805 19.7256 0.010307 0.057259 -1.731873
2008-05-28 07:54:49 51°30.367 2°53.826 19.7384 0.010307 0.057261 -1.766697
2008-05-28 07:55:49 51°30.589 2°53.847 19.7271 0.010307 0.057263 -1.731873
2008-05-28 07:56:49 51°30.813 2°53.871 19.7433 0.010307 0.057264 -1.731873
2008-05-28 07:57:49 51°31.04 2°53.895 19.7498 0.010307 0.057265 -1.731873
2008-05-28 07:58:49 51°31.265 2°53.918 19.7507 0.010307 0.057266 -1.731873
2008-05-28 07:59:49 51°31.489 2°53.939 19.7744 0.010307 0.057269 -1.731873
2008-05-28 08:00:49 51°31.714 2°53.955 19.7715 0.010307 0.057272 -1.731873
2008-05-28 08:01:49 51°31.941 2°53.977 19.7895 0.010307 0.057273 -1.731873
2008-05-28 08:02:49 51°32.168 2°53.999 19.7948 0.010307 0.057274 -1.731873
2008-05-28 08:03:49 51°32.394 2°54.019 19.8063 0.010307 0.057275 -1.731873
2008-05-28 08:04:49 51°32.622 2°54.041 19.8163 0.010307 0.057275 -1.731873
2008-05-28 08:05:49 51°32.85 2°54.066 19.8199 0.010307 0.057276 -1.766697
2008-05-28 08:06:49 51°33.076 2°54.095 19.8301 0.010307 0.057276 -1.731873
2008-05-28 08:07:49 51°33.294 2°54.183 19.8385 0.010307 0.057276 -1.731873
2008-05-28 08:08:49 51°33.5 2°54.329 19.8368 0.010307 0.057279 -1.731873
2008-05-28 08:09:49 51°33.697 2°54.507 19.8467 0.010307 0.05728 -1.731873
2008-05-28 08:10:49 51°33.893 2°54.687 19.8502 0.010307 0.057283 -1.731873
2008-05-28 08:11:49 51°34.083 2°54.889 19.8541 0.010307 0.057284 -1.731873
2008-05-28 08:12:49 51°34.264 2°55.109 19.88 0.010307 0.057284 -1.766697
2008-05-28 08:13:49 51°34.437 2°55.242 19.8758 0.010307 0.057286 -1.766697
2008-05-28 08:14:49 51°34.529 2°55.233 19.9046 0.010307 0.057286 -1.766697
2008-05-28 08:15:49 51°34.527 2°55.146 19.8866 0.010307 0.057285 -1.766697
2008-05-28 08:16:49 51°34.483 2°55.075 19.8899 0.010307 0.057285 -1.731873
2008-05-28 08:17:49 51°34.483 2°55.067 19.9158 0.010307 0.057284 -1.731873
2008-05-28 08:18:49 51°34.497 2°55.066 19.9131 0.010307 0.057283 -1.731873
2008-05-28 08:19:49 51°34.509 2°55.067 19.93 0.010307 0.057284 -1.731873
2008-05-28 08:20:49 51°34.514 2°55.069 19.9304 0.010307 0.057286 -1.731873
2008-05-28 08:21:49 51°34.509 2°55.071 19.9443 0.010307 0.057286 -1.731873
2008-05-28 08:22:49 51°34.506 2°55.073 19.9459 0.010307 0.057286 -1.731873
2008-05-28 08:23:49 51°34.505 2°55.077 19.9513 0.010307 0.057288 -1.731873
2008-05-28 08:24:49 51°34.507 2°55.082 19.9634 0.010307 0.057291 -1.731873
2008-05-28 08:25:49 51°34.507 2°55.086 19.9663 0.010307 0.057293 -1.731873
2008-05-28 08:26:49 51°34.505 2°55.086 19.9734 0.010307 0.057294 -1.731873
2008-05-28 08:27:49 51°34.44 2°55.174 19.9851 0.010307 0.057296 -1.731873
2008-05-28 08:28:49 51°34.502 2°55.088 19.9911 0.010307 0.057296 -1.731873
2008-05-28 08:29:49 51°34.503 2°55.089 20.0021 0.010307 0.057298 -1.731873
2008-05-28 08:30:49 51°34.503 2°55.088 20.0105 0.010307 0.057299 -1.731873
2008-05-28 08:31:49 51°34.503 2°55.087 20.0188 0.010307 0.0573 -1.731873
2008-05-28 08:32:49 51°34.503 2°55.089 20.0251 0.010307 0.057301 -1.731873
2008-05-28 08:33:49 51°34.503 2°55.089 19.4566 0.010307 0.057301 -1.766697
2008-05-28 08:34:49 51°34.502 2°55.089 19.4706 0.010307 0.057302 -1.766697
2008-05-28 08:35:49 51°34.502 2°55.089 19.5268 0.010307 0.057304 -1.766697
2008-05-28 08:36:49 51°34.503 2°55.088 19.5516 0.010307 0.057307 -1.766697
2008-05-28 08:37:49 51°34.502 2°55.087 19.6423 0.010307 0.057308 -1.766697
2008-05-28 08:38:49 51°34.503 2°55.087 19.623 0.010307 0.057309 -1.731873
2008-05-28 08:39:49 51°34.505 2°55.087 19.6713 0.010307 0.05731 -1.731873
2008-05-28 08:40:49 51°34.504 2°55.084 19.7307 0.010307 0.057311 -1.731873
2008-05-28 08:41:49 51°34.502 2°55.085 19.7357 0.010307 0.057312 -1.766697
2008-05-28 08:42:49 51°34.5 2°55.083 19.7313 0.010307 0.057313 -1.766697
2008-05-28 08:43:49 51°34.504 2°55.084 19.7104 0.010307 0.057315 -1.731873
2008-05-28 08:44:49 51°34.505 2°55.084 19.7446 0.010307 0.057316 -1.731873
2008-05-28 08:45:49 51°34.504 2°55.082 19.754 0.010307 0.057317 -1.731873
2008-05-28 08:46:49 51°34.506 2°55.079 19.7638 0.010307 0.057318 -1.731873
2008-05-28 08:47:49 51°34.508 2°55.079 19.8008 0.010307 0.057318 -1.731873
2008-05-28 08:48:49 51°34.509 2°55.077 19.7811 0.010307 0.057319 -1.766697
2008-05-28 08:49:49 51°34.508 2°55.075 19.7902 0.010307 0.057321 -1.731873
2008-05-28 08:50:49 51°34.508 2°55.075 19.7961 0.010307 0.057321 -1.731873
2008-05-28 08:51:49 51°34.509 2°55.074 19.8164 0.010307 0.057322 -1.731873
2008-05-28 08:52:49 51°34.509 2°55.075 19.8324 0.010307 0.057323 -1.731873
2008-05-28 08:53:49 51°34.508 2°55.075 19.8293 0.010307 0.057325 -1.731873
2008-05-28 08:54:49 51°34.508 2°55.074 19.8311 0.010204 0.056804 -1.731873
2008-05-28 08:55:49 51°34.508 2°55.075 19.8332 0.010307 0.057327 -1.766697
2008-05-28 08:56:49 51°34.509 2°55.074 19.8518 0.010307 0.057328 -1.731873
2008-05-28 08:57:49 51°34.509 2°55.074 19.8608 0.010307 0.057329 -1.731873
2008-05-28 08:58:49 51°34.508 2°55.073 19.8577 0.010307 0.05733 -1.731873
2008-05-28 08:59:49 51°34.508 2°55.073 19.8639 0.010307 0.057331 -1.766697
2008-05-28 09:00:49 51°34.508 2°55.072 19.8744 0.010307 0.057332 -1.731873
2008-05-28 09:01:49 51°34.509 2°55.072 19.887 0.010307 0.057333 -1.766697
2008-05-28 09:02:49 51°34.508 2°55.071 19.8807 0.010307 0.057334 -1.766697
2008-05-28 09:03:49 51°34.508 2°55.07 19.8804 0.010204 0.056814 -1.731873
2008-05-28 09:04:49 51°34.508 2°55.069 19.8894 0.010307 0.057338 -1.731873
2008-05-28 09:05:49 51°34.51 2°55.067 19.8924 0.010307 0.057338 -1.731873
2008-05-28 09:06:49 51°34.51 2°55.068 19.9002 0.010307 0.057339 -1.766697
2008-05-28 09:07:49 51°34.511 2°55.067 19.902 0.010204 0.056819 -1.766697
2008-05-28 09:08:49 51°34.51 2°55.065 19.9076 0.010307 0.057342 -1.731873
2008-05-28 09:09:49 51°34.51 2°55.064 19.9229 0.010204 0.056821 -1.731873
2008-05-28 09:10:49 51°34.51 2°55.064 19.9193 0.010307 0.057344 -1.766697
2008-05-28 09:11:49 51°34.511 2°55.062 19.9272 0.010307 0.057346 -1.731873
2008-05-28 09:12:49 51°34.511 2°55.065 19.9235 0.010307 0.057347 -1.766697
2008-05-28 09:13:49 51°34.509 2°55.066 19.93 0.010307 0.05735 -1.731873
2008-05-28 09:14:49 51°34.498 2°55.065 19.9338 0.010204 0.05683 -1.731873
2008-05-28 09:15:49 51°34.486 2°55.062 19.9404 0.010307 0.057354 -1.731873
2008-05-28 09:16:49 51°34.479 2°55.068 19.947 0.010307 0.057356 -1.731873
2008-05-28 09:17:49 51°34.475 2°55.077 19.9487 0.010204 0.056835 -1.731873
2008-05-28 09:18:49 51°34.476 2°55.084 19.9503 0.010204 0.056837 -1.731873
2008-05-28 09:19:49 51°34.463 2°55.066 19.9582 0.010204 0.056839 -1.731873
2008-05-28 09:20:49 51°34.49 2°54.993 19.9687 0.010204 0.056841 -1.731873
2008-05-28 09:21:49 51°34.566 2°55.013 19.9749 0.010204 0.056843 -1.731873
2008-05-28 09:22:49 51°34.655 2°55.214 19.976 0.010204 0.056846 -1.731873
2008-05-28 09:23:49 51°34.757 2°55.513 19.981 0.010204 0.056848 -1.731873
2008-05-28 09:24:49 51°34.862 2°55.817 19.9843 0.010204 0.056853 -1.731873
2008-05-28 09:25:49 51°34.955 2°56.128 19.9908 0.010204 0.05686 -1.731873
2008-05-28 09:26:49 51°35.054 2°56.442 19.9915 0.010204 0.056867 -1.731873
2008-05-28 09:27:49 51°35.155 2°56.751 19.9931 0.010204 0.056876 -1.731873
2008-05-28 09:28:49 51°35.248 2°57.065 19.9972 0.010204 0.056884 -1.766697
2008-05-28 09:29:49 51°35.34 2°57.381 20.001 0.010204 0.056892 -1.731873
2008-05-28 09:30:49 51°35.435 2°57.694 20.0044 0.010204 0.056901 -1.766697
2008-05-28 09:31:49 51°35.531 2°58.003 20.0081 0.010204 0.05691 -1.766697
2008-05-28 09:32:49 51°35.621 2°58.311 20.0113 0.010204 0.056919 -1.731873
2008-05-28 09:33:49 51°35.714 2°58.618 20.0166 0.010204 0.056928 -1.731873
2008-05-28 09:34:49 51°35.75 2°58.94 20.0224 0.010204 0.056937 -1.731873
2008-05-28 09:35:49 51°35.671 2°59.229 20.0256 0.010204 0.056947 -1.731873
2008-05-28 09:36:49 51°35.55 2°59.479 20.0275 0.010204 0.056956 -1.731873
2008-05-28 09:37:49 51°35.423 2°59.718 20.0163 0.010204 0.056968 -1.766697
2008-05-28 09:38:49 51°35.297 2°59.958 20.0326 0.010204 0.056978 -1.731873
2008-05-28 09:39:49 51°35.171 3°0.194 20.0133 0.010204 0.056993 -1.731873
2008-05-28 09:40:49 51°35.042 3°0.429 20.0247 0.010204 0.057 -1.731873
2008-05-28 09:41:49 51°34.914 3°0.662 20.0329 0.010204 0.057009 -1.766697
2008-05-28 09:42:49 51°34.787 3°0.896 20.0357 0.010204 0.057017 -1.766697
2008-05-28 09:43:49 51°34.64 3°1.082 20.0374 0.010204 0.057027 -1.731873
2008-05-28 09:44:49 51°34.458 3°1.11 20.0408 0.010204 0.057038 -1.731873
2008-05-28 09:45:49 51°34.312 3°0.941 20.0423 0.010204 0.057045 -1.731873
2008-05-28 09:46:49 51°34.233 3°0.651 20.037 0.010204 0.057047 -1.766697
2008-05-28 09:47:47 51°34.164 3°0.364 20.043 0.010204 0.057052 -1.731873
2008-05-28 09:48:19 51°34.082 3°0.183 20.0235 0.010204 0.057057 -1.731873
2008-05-28 09:49:49 51°33.962 2°59.803 20.0293 0.010204 0.05706 -1.766697
2008-05-28 09:50:49 51°33.851 2°59.524 20.0377 0.010204 0.057062 -1.766697
2008-05-28 09:51:49 51°33.753 2°59.263 20.0652 0.010204 0.057065 -1.731873
2008-05-28 09:52:49 51°33.645 2°58.999 20.035 0.010204 0.05707 -1.731873
2008-05-28 09:53:49 51°33.537 2°58.737 20.0396 0.010204 0.057074 -1.766697
2008-05-28 09:54:49 51°33.425 2°58.476 20.0356 0.010204 0.057077 -1.731873
2008-05-28 09:55:49 51°33.325 2°58.238 20.0458 0.010204 0.057079 -1.731873
2008-05-28 09:56:49 51°33.231 2°58.01 20.0418 0.010204 0.057081 -1.731873
2008-05-28 09:57:49 51°33.142 2°57.797 20.0385 0.010204 0.057085 -1.731873
2008-05-28 09:58:49 51°33.094 2°57.677 20.0471 0.010204 0.057088 -1.731873
2008-05-28 09:59:49 51°33.071 2°57.622 20.0497 0.010204 0.057089 -1.731873
2008-05-28 10:00:49 51°33.065 2°57.589 20.0596 0.010204 0.05709 -1.731873
2008-05-28 10:01:49 51°33.066 2°57.562 20.0565 0.010204 0.057092 -1.731873
2008-05-28 10:02:49 51°33.078 2°57.538 20.0612 0.010204 0.057093 -1.731873
2008-05-28 10:03:49 51°33.085 2°57.524 20.0699 0.010204 0.057095 -1.731873
2008-05-28 10:04:49 51°33.1 2°57.509 20.0724 0.010204 0.057095 -1.731873
2008-05-28 10:05:49 51°33.115 2°57.495 20.0807 0.010204 0.057097 -1.731873
2008-05-28 10:06:49 51°33.13 2°57.482 20.0834 0.010204 0.057098 -1.731873
2008-05-28 10:07:49 51°33.145 2°57.468 20.0878 0.010204 0.057101 -1.731873
2008-05-28 10:08:49 51°33.161 2°57.455 20.093 0.010204 0.057102 -1.731873
2008-05-28 10:09:49 51°33.179 2°57.443 20.0989 0.010204 0.057104 -1.731873
2008-05-28 10:10:49 51°33.194 2°57.431 20.104 0.010204 0.057106 -1.766697
2008-05-28 10:11:49 51°33.211 2°57.418 20.1088 0.010204 0.057107 -1.731873
2008-05-28 10:12:49 51°33.228 2°57.407 20.1138 0.010204 0.057108 -1.731873
2008-05-28 10:13:49 51°33.245 2°57.399 20.1203 0.010204 0.057111 -1.731873
2008-05-28 10:14:49 51°33.264 2°57.393 20.1235 0.010204 0.057112 -1.731873
2008-05-28 10:15:49 51°33.281 2°57.386 20.129 0.010204 0.057114 -1.731873
2008-05-28 10:16:49 51°33.298 2°57.376 20.136 0.010204 0.057116 -1.766697
2008-05-28 10:17:49 51°33.315 2°57.367 20.1395 0.010204 0.057117 -1.731873
2008-05-28 10:18:49 51°33.331 2°57.357 20.1431 0.010204 0.057119 -1.766697
2008-05-28 10:19:49 51°33.348 2°57.347 20.1473 0.010204 0.057121 -1.731873
2008-05-28 10:20:49 51°33.363 2°57.34 20.1545 0.010204 0.057123 -1.731873
2008-05-28 10:21:49 51°33.38 2°57.331 20.1587 0.010204 0.057125 -1.731873
2008-05-28 10:22:49 51°33.396 2°57.32 20.1638 0.010204 0.057126 -1.731873
2008-05-28 10:23:49 51°33.41 2°57.311 20.1672 0.010204 0.057128 -1.766697
2008-05-28 10:24:49 51°33.427 2°57.296 20.1725 0.010204 0.05713 -1.731873
2008-05-28 10:25:49 51°33.444 2°57.292 20.1778 0.010204 0.057132 -1.766697
2008-05-28 10:26:49 51°33.461 2°57.28 20.1786 0.010204 0.057134 -1.731873
2008-05-28 10:27:49 51°33.475 2°57.274 20.185 0.010204 0.057137 -1.731873
2008-05-28 10:28:49 51°33.492 2°57.263 20.187 0.010204 0.057139 -1.766697
2008-05-28 10:29:49 51°33.509 2°57.253 20.1928 0.010204 0.057141 -1.731873
2008-05-28 10:30:49 51°33.525 2°57.243 20.1943 0.010204 0.057143 -1.731873
2008-05-28 10:31:49 51°33.541 2°57.232 20.2002 0.010204 0.057145 -1.766697
2008-05-28 10:32:49 51°33.556 2°57.222 20.2039 0.010204 0.057147 -1.731873
2008-05-28 10:33:49 51°33.571 2°57.212 20.2085 0.010204 0.057149 -1.731873
2008-05-28 10:34:49 51°33.597 2°57.204 20.2127 0.010204 0.057152 -1.731873
2008-05-28 10:35:49 51°33.601 2°57.19 20.2209 0.010204 0.057154 -1.731873
2008-05-28 10:36:49 51°33.617 2°57.178 20.2185 0.010204 0.057156 -1.731873
2008-05-28 10:37:49 51°33.633 2°57.166 20.2271 0.010204 0.057159 -1.731873
2008-05-28 10:38:49 51°33.647 2°57.152 20.2298 0.010204 0.057162 -1.766697
2008-05-28 10:39:49 51°33.661 2°57.138 20.2368 0.010204 0.057165 -1.766697
2008-05-28 10:40:49 51°33.676 2°57.125 20.2403 0.010204 0.057167 -1.731873
2008-05-28 10:41:49 51°33.692 2°57.113 20.2377 0.010204 0.057169 -1.731873
2008-05-28 10:42:49 51°33.708 2°57.099 20.2438 0.010204 0.057172 -1.731873
2008-05-28 10:43:49 51°33.723 2°57.088 20.251 0.010204 0.057173 -1.731873
2008-05-28 10:44:49 51°33.739 2°57.076 20.252 0.010204 0.057175 -1.731873
2008-05-28 10:45:49 51°33.755 2°57.066 20.26 0.010204 0.057178 -1.731873
2008-05-28 10:46:49 51°33.771 2°57.056 20.2617 0.010204 0.057178 -1.731873
2008-05-28 10:47:49 51°33.788 2°57.046 20.2658 0.010204 0.057179 -1.731873
2008-05-28 10:48:49 51°33.804 2°57.036 20.2705 0.010204 0.05718 -1.731873
2008-05-28 10:49:49 51°33.821 2°57.026 20.2763 0.010204 0.05718 -1.766697
2008-05-28 10:50:49 51°33.839 2°57.017 20.2779 0.010204 0.057182 -1.766697
2008-05-28 10:51:49 51°33.855 2°57.007 20.2797 0.010204 0.057183 -1.731873
2008-05-28 10:52:49 51°33.872 2°56.997 20.2889 0.010204 0.057183 -1.731873
2008-05-28 10:53:49 51°33.888 2°56.986 20.2875 0.010204 0.057184 -1.731873
2008-05-28 10:54:49 51°33.905 2°56.975 20.2997 0.010204 0.057185 -1.766697
2008-05-28 10:55:49 51°33.921 2°56.964 20.3034 0.010204 0.057185 -1.766697
2008-05-28 10:56:49 51°33.937 2°56.955 20.3079 0.010204 0.057187 -1.731873
2008-05-28 10:57:49 51°33.952 2°56.944 20.3102 0.010204 0.057188 -1.731873
2008-05-28 10:58:49 51°33.967 2°56.932 20.3075 0.010204 0.057189 -1.731873
2008-05-28 10:59:49 51°33.983 2°56.922 20.3181 0.010204 0.05719 -1.731873
2008-05-28 11:00:49 51°33.974 2°56.868 20.3272 0.010204 0.057191 -1.731873
2008-05-28 11:01:49 51°33.851 2°56.736 20.32 0.010204 0.057191 -1.731873
2008-05-28 11:02:49 51°33.685 2°56.57 20.3229 0.010204 0.057192 -1.731873
2008-05-28 11:03:49 51°33.512 2°56.412 20.3275 0.010204 0.057194 -1.731873
2008-05-28 11:04:49 51°33.338 2°56.256 20.3319 0.010204 0.057195 -1.731873
2008-05-28 11:05:49 51°33.164 2°56.104 20.3423 0.010204 0.057196 -1.766697
2008-05-28 11:06:49 51°32.978 2°55.997 20.3425 0.010204 0.057196 -1.731873
2008-05-28 11:07:49 51°32.787 2°55.923 20.3484 0.010204 0.057197 -1.766697
2008-05-28 11:08:49 51°32.617 2°55.766 20.3515 0.010204 0.057199 -1.731873
2008-05-28 11:09:49 51°32.487 2°55.524 20.3585 0.010204 0.057201 -1.731873
2008-05-28 11:10:49 51°32.372 2°55.258 20.3501 0.010204 0.057201 -1.766697
2008-05-28 11:11:49 51°32.258 2°54.992 20.3541 0.010204 0.057202 -1.731873
2008-05-28 11:12:49 51°32.141 2°54.727 20.3618 0.010204 0.057204 -1.766697
2008-05-28 11:13:49 51°32.025 2°54.46 20.3586 0.010204 0.057206 -1.766697
2008-05-28 11:14:49 51°31.924 2°54.175 20.3658 0.010204 0.057206 -1.766697
2008-05-28 11:15:49 51°31.826 2°53.889 20.3704 0.010204 0.057207 -1.731873
2008-05-28 11:16:49 51°31.727 2°53.606 20.3703 0.010204 0.057209 -1.731873
2008-05-28 11:17:49 51°31.625 2°53.323 20.3684 0.010204 0.05721 -1.731873
2008-05-28 11:18:49 51°31.516 2°53.044 20.3763 0.010204 0.057211 -1.731873
2008-05-28 11:19:49 51°31.41 2°52.764 20.3716 0.010204 0.057212 -1.766697
2008-05-28 11:20:49 51°31.301 2°52.486 20.3829 0.010204 0.057214 -1.731873
2008-05-28 11:21:49 51°31.193 2°52.211 20.3813 0.010204 0.057214 -1.766697
2008-05-28 11:22:49 51°31.085 2°51.937 20.3901 0.010204 0.057216 -1.731873
2008-05-28 11:23:49 51°30.979 2°51.662 20.3945 0.010204 0.057218 -1.731873
2008-05-28 11:24:49 51°30.87 2°51.386 20.3895 0.010204 0.057219 -1.731873
2008-05-28 11:25:49 51°30.766 2°51.11 20.3927 0.010204 0.057222 -1.731873
2008-05-28 11:26:49 51°30.665 2°50.828 20.4029 0.010204 0.057225 -1.766697
2008-05-28 11:27:49 51°30.564 2°50.547 20.4057 0.010204 0.057227 -1.731873
2008-05-28 11:28:49 51°30.465 2°50.265 20.4037 0.010204 0.057233 -1.731873
2008-05-28 11:29:49 51°30.365 2°49.983 20.4073 0.010204 0.057237 -1.731873
2008-05-28 11:30:49 51°30.264 2°49.7 20.4076 0.010204 0.057238 -1.731873
2008-05-28 11:31:49 51°30.164 2°49.414 20.413 0.010204 0.05724 -1.766697
2008-05-28 11:32:49 51°30.066 2°49.126 20.4155 0.010204 0.057241 -1.731873
2008-05-28 11:33:49 51°29.964 2°48.839 20.4242 0.010204 0.057243 -1.731873
2008-05-28 11:34:49 51°29.863 2°48.555 20.4227 0.010204 0.057246 -1.766697
2008-05-28 11:35:49 51°29.763 2°48.268 20.4222 0.010204 0.057251 -1.731873
2008-05-28 11:36:49 51°29.667 2°47.975 20.4223 0.010204 0.057253 -1.731873
2008-05-28 11:37:49 51°29.567 2°47.687 20.4236 0.010204 0.057257 -1.766697
2008-05-28 11:38:49 51°29.464 2°47.398 20.4273 0.010204 0.057259 -1.731873
2008-05-28 11:39:49 51°29.361 2°47.112 20.4317 0.010204 0.057259 -1.731873
2008-05-28 11:40:49 51°29.255 2°46.829 20.4342 0.010204 0.057262 -1.731873
2008-05-28 11:41:49 51°29.154 2°46.542 20.4343 0.010204 0.057264 -1.731873
2008-05-28 11:42:49 51°29.051 2°46.259 20.4386 0.010204 0.057265 -1.731873
2008-05-28 11:43:49 51°28.95 2°45.972 20.4419 0.010204 0.057267 -1.731873
2008-05-28 11:44:49 51°28.851 2°45.684 20.4447 0.010204 0.057268 -1.766697
2008-05-28 11:45:49 51°28.75 2°45.398 20.4508 0.010204 0.05727 -1.731873
2008-05-28 11:46:49 51°28.65 2°45.111 20.4555 0.010204 0.057275 -1.731873
2008-05-28 11:47:49 51°28.546 2°44.831 20.4576 0.010204 0.057278 -1.731873
2008-05-28 11:48:49 51°28.444 2°44.552 20.458 0.010204 0.057281 -1.766697
2008-05-28 11:49:49 51°28.337 2°44.272 20.4638 0.010204 0.057281 -1.731873
2008-05-28 11:50:49 51°28.23 2°43.988 20.4657 0.010204 0.057283 -1.766697
2008-05-28 11:51:49 51°28.125 2°43.707 20.4698 0.010204 0.057287 -1.731873
2008-05-28 11:52:49 51°28.019 2°43.425 20.473 0.010204 0.057288 -1.731873
2008-05-28 11:53:49 51°27.911 2°43.145 20.4775 0.010204 0.057289 -1.731873
2008-05-28 11:54:49 51°27.801 2°42.862 20.4795 0.010204 0.057291 -1.731873
2008-05-28 11:55:49 51°27.654 2°42.648 20.4811 0.010204 0.057292 -1.731873
2008-05-28 11:56:49 51°27.46 2°42.596 20.4849 0.010204 0.057293 -1.731873
2008-05-28 11:57:49 51°27.269 2°42.658 20.4896 0.010204 0.057297 -1.731873
2008-05-28 11:58:49 51°27.099 2°42.813 20.4938 0.010204 0.057304 -1.731873
2008-05-28 11:59:49 51°26.996 2°43.066 20.5 0.010204 0.057316 -1.731873
2008-05-28 12:00:49 51°26.963 2°43.363 20.5006 0.010204 0.057328 -1.731873
2008-05-28 12:01:49 51°26.94 2°43.666 20.5008 0.010204 0.057337 -1.731873
2008-05-28 12:02:49 51°26.94 2°43.971 20.5035 0.010204 0.057346 -1.731873
2008-05-28 12:03:49 51°26.967 2°44.275 20.5105 0.010204 0.057351 -1.731873
2008-05-28 12:04:49 51°27.016 2°44.572 20.5145 0.010101 0.056831 -1.731873
2008-05-28 12:05:49 51°27.079 2°44.866 20.5166 0.010101 0.056835 -1.731873
2008-05-28 12:06:49 51°27.139 2°45.168 20.5163 0.010101 0.056838 -1.731873
2008-05-28 12:07:49 51°27.2 2°45.457 20.5175 0.010101 0.05684 -1.731873
2008-05-28 12:08:49 51°27.264 2°45.741 20.5015 0.010101 0.056843 -1.731873
2008-05-28 12:09:49 51°27.359 2°46.005 20.4777 0.010101 0.056844 -1.731873
2008-05-28 12:10:49 51°27.457 2°46.265 20.5121 0.010101 0.056848 -1.731873
2008-05-28 12:11:49 51°27.55 2°46.535 20.5058 0.010101 0.056848 -1.731873
2008-05-28 12:12:49 51°27.645 2°46.801 20.5311 0.010101 0.056851 -1.731873
2008-05-28 12:13:49 51°27.676 2°47.097 20.52 0.010101 0.056851 -1.731873
2008-05-28 12:14:49 51°27.656 2°47.403 20.5299 0.010101 0.056851 -1.731873
2008-05-28 12:15:49 51°27.655 2°47.707 20.54 0.010101 0.056854 -1.731873
2008-05-28 12:16:49 51°27.69 2°48.003 20.5382 0.010101 0.056858 -1.731873
2008-05-28 12:17:49 51°27.767 2°48.274 20.5371 0.010101 0.056861 -1.731873
2008-05-28 12:18:49 51°27.872 2°48.524 20.5416 0.010101 0.056863 -1.731873
2008-05-28 12:19:49 51°27.982 2°48.775 20.5594 0.010101 0.056864 -1.731873
2008-05-28 12:20:49 51°28.087 2°49.026 20.5375 0.010101 0.056865 -1.731873
2008-05-28 12:21:49 51°28.192 2°49.277 20.5361 0.010101 0.056865 -1.731873
2008-05-28 12:22:49 51°28.293 2°49.53 20.5424 0.010101 0.056866 -1.731873
2008-05-28 12:23:49 51°28.395 2°49.786 20.5582 0.010101 0.056866 -1.731873
2008-05-28 12:24:49 51°28.494 2°50.041 20.5635 0.010101 0.056866 -1.731873
2008-05-28 12:25:49 51°28.599 2°50.294 20.5623 0.010101 0.056866 -1.697049
2008-05-28 12:26:49 51°28.702 2°50.547 20.5648 0.010101 0.056866 -1.731873
2008-05-28 12:27:49 51°28.803 2°50.805 20.5838 0.010101 0.056866 -1.731873
2008-05-28 12:28:49 51°28.905 2°51.062 20.5567 0.010101 0.056866 -1.697049
2008-05-28 12:29:49 51°29.005 2°51.322 20.5829 0.010101 0.056867 -1.731873
2008-05-28 12:30:49 51°29.109 2°51.579 20.594 0.010101 0.056869 -1.731873
2008-05-28 12:31:49 51°29.213 2°51.838 20.5436 0.010101 0.056869 -1.731873
2008-05-28 12:32:49 51°29.315 2°52.101 20.5619 0.010101 0.05687 -1.731873
2008-05-28 12:33:49 51°29.414 2°52.368 20.5901 0.010101 0.05687 -1.731873
2008-05-28 12:34:49 51°29.513 2°52.632 20.5911 0.010101 0.056869 -1.731873
2008-05-28 12:35:49 51°29.609 2°52.896 20.592 0.010101 0.056871 -1.731873
2008-05-28 12:36:49 51°29.709 2°53.156 20.5966 0.010101 0.05687 -1.731873
2008-05-28 12:37:49 51°29.81 2°53.421 20.5864 0.010101 0.05687 -1.731873
2008-05-28 12:38:49 51°29.911 2°53.687 20.6195 0.010101 0.056869 -1.731873
2008-05-28 12:39:49 51°30.012 2°53.95 20.6072 0.010101 0.056869 -1.731873
2008-05-28 12:40:49 51°30.118 2°54.206 20.6063 0.010101 0.056869 -1.731873
2008-05-28 12:41:49 51°30.222 2°54.468 20.6204 0.010101 0.056869 -1.731873
2008-05-28 12:42:49 51°30.323 2°54.723 20.6033 0.010101 0.056868 -1.731873
2008-05-28 12:43:49 51°30.42 2°54.978 20.6215 0.010101 0.056869 -1.731873
2008-05-28 12:44:49 51°30.516 2°55.241 20.6039 0.010101 0.056866 -1.731873
2008-05-28 12:45:49 51°30.612 2°55.502 20.6425 0.010101 0.056865 -1.731873
2008-05-28 12:46:49 51°30.709 2°55.76 20.6375 0.010101 0.056864 -1.731873
2008-05-28 12:47:49 51°30.803 2°56.018 20.6335 0.010101 0.056864 -1.731873
2008-05-28 12:48:49 51°30.897 2°56.277 20.6325 0.010101 0.056864 -1.731873
2008-05-28 12:49:49 51°30.993 2°56.532 20.6492 0.010101 0.056862 -1.731873
2008-05-28 12:50:49 51°31.086 2°56.788 20.6523 0.010101 0.056861 -1.731873
2008-05-28 12:51:49 51°31.176 2°57.044 20.6284 0.010101 0.056861 -1.697049
2008-05-28 12:52:49 51°31.262 2°57.302 20.6353 0.010101 0.05686 -1.731873
2008-05-28 12:53:49 51°31.35 2°57.56 20.6529 0.010101 0.056859 -1.731873
2008-05-28 12:54:49 51°31.429 2°57.828 20.6717 0.010101 0.056858 -1.731873
2008-05-28 12:55:49 51°31.51 2°58.095 20.6601 0.010101 0.056858 -1.731873
2008-05-28 12:56:49 51°31.589 2°58.365 20.6624 0.010101 0.056858 -1.731873
2008-05-28 12:57:49 51°31.671 2°58.635 20.6545 0.010101 0.056857 -1.697049
2008-05-28 12:58:49 51°31.749 2°58.905 20.6741 0.010101 0.056859 -1.731873
2008-05-28 12:59:49 51°31.83 2°59.176 20.6761 0.010101 0.056858 -1.731873
2008-05-28 13:00:49 51°31.914 2°59.442 20.6523 0.010101 0.056857 -1.766697
2008-05-28 13:01:49 51°31.994 2°59.709 20.6649 0.010101 0.056856 -1.731873
2008-05-28 13:02:49 51°32.074 2°59.975 20.7007 0.010204 0.057383 -1.731873
2008-05-28 13:03:49 51°32.155 3°0.243 20.744 0.010101 0.056854 -1.697049
2008-05-28 13:04:49 51°32.242 3°0.51 20.7509 0.010101 0.056851 -1.731873
2008-05-28 13:05:49 51°32.331 3°0.773 20.728 0.010204 0.05738 -1.731873
2008-05-28 13:06:49 51°32.427 3°1.034 20.7243 0.010204 0.057377 -1.731873
2008-05-28 13:07:49 51°32.523 3°1.295 20.7381 0.010204 0.057375 -1.731873
2008-05-28 13:08:50 51°32.621 3°1.562 20.7506 0.010204 0.057374 -1.731873
2008-05-28 13:09:49 51°32.714 3°1.821 20.6034 0.010204 0.057372 -1.731873
2008-05-28 13:10:49 51°32.773 3°2.107 20.628 0.010204 0.057373 -1.731873
2008-05-28 13:11:49 51°32.804 3°2.411 20.489 0.010204 0.057374 -1.731873
2008-05-28 13:12:49 51°32.838 3°2.715 20.5692 0.010204 0.057373 -1.731873
2008-05-28 13:13:49 51°32.86 3°3.022 20.5288 0.010204 0.057372 -1.731873
2008-05-28 13:14:45 51°32.824 3°3.306 20.5328 0.010204 0.05737 -1.731873
2008-05-28 13:15:49 51°32.824 3°3.306 20.5071 0.010204 0.057369 -1.731873
2008-05-28 13:16:49 51°32.686 3°3.913 20.5041 0.010204 0.057367 -1.731873
2008-05-28 13:17:49 51°32.557 3°4.161 20.5098 0.010204 0.057365 -1.731873
2008-05-28 13:18:49 51°32.396 3°4.354 20.5386 0.010204 0.057363 -1.731873
2008-05-28 13:19:49 51°32.232 3°4.543 20.5383 0.010204 0.057363 -1.731873
2008-05-28 13:20:49 51°32.037 3°4.62 20.5242 0.010204 0.057361 -1.731873
2008-05-28 13:21:49 51°31.844 3°4.509 20.5363 0.010204 0.057361 -1.731873
2008-05-28 13:22:49 51°31.688 3°4.278 20.548 0.010204 0.057358 -1.731873
2008-05-28 13:23:49 51°31.556 3°4.002 20.5129 0.010204 0.057357 -1.731873
2008-05-28 13:24:49 51°31.43 3°3.721 20.5347 0.010204 0.057354 -1.731873
2008-05-28 13:25:49 51°31.303 3°3.439 20.5316 0.010204 0.057353 -1.731873
2008-05-28 13:26:49 51°31.185 3°3.152 20.5591 0.010204 0.05735 -1.731873
2008-05-28 13:27:50 51°31.072 3°2.848 20.5811 0.010204 0.057349 -1.731873
2008-05-28 13:28:49 51°30.969 3°2.552 20.576 0.010204 0.057349 -1.731873
2008-05-28 13:29:49 51°30.862 3°2.252 20.5715 0.010204 0.057347 -1.731873
2008-05-28 13:30:49 51°30.756 3°1.951 20.5698 0.010204 0.057345 -1.731873
2008-05-28 13:31:49 51°30.65 3°1.65 20.6031 0.010204 0.057344 -1.731873
2008-05-28 13:32:49 51°30.539 3°1.35 20.5637 0.010204 0.057343 -1.731873
2008-05-28 13:33:49 51°30.428 3°1.05 20.5734 0.010204 0.057341 -1.731873
2008-05-28 13:34:50 51°30.315 3°0.743 20.5922 0.010204 0.057336 -1.731873
2008-05-28 13:35:49 51°30.206 3°0.45 20.5816 0.010204 0.057336 -1.731873
2008-05-28 13:36:50 51°30.093 3°0.144 20.6007 0.010204 0.057334 -1.731873
2008-05-28 13:37:49 51°29.99 2°59.844 20.6188 0.010204 0.057332 -1.731873
2008-05-28 13:38:49 51°29.883 2°59.54 20.6213 0.010204 0.057331 -1.731873
2008-05-28 13:39:50 51°29.774 2°59.227 20.6175 0.010204 0.057329 -1.731873
2008-05-28 13:40:49 51°29.671 2°58.927 20.6133 0.010204 0.057327 -1.731873
2008-05-28 13:41:50 51°29.565 2°58.617 20.6203 0.010204 0.057326 -1.731873
2008-05-28 13:42:49 51°29.463 2°58.321 20.6304 0.010204 0.057328 -1.731873
2008-05-28 13:43:49 51°29.356 2°58.016 20.6407 0.010204 0.057328 -1.731873
2008-05-28 13:44:49 51°29.252 2°57.713 20.6536 0.010204 0.057326 -1.731873
2008-05-28 13:45:49 51°29.145 2°57.41 20.6432 0.010204 0.057323 -1.731873
2008-05-28 13:46:49 51°29.043 2°57.107 20.6588 0.010204 0.057321 -1.731873
2008-05-28 13:47:49 51°28.938 2°56.803 20.6682 0.010204 0.057318 -1.731873
2008-05-28 13:48:49 51°28.833 2°56.497 20.6613 0.010204 0.057317 -1.731873
2008-05-28 13:49:49 51°28.731 2°56.192 20.667 0.010204 0.057315 -1.731873
2008-05-28 13:50:50 51°28.625 2°55.881 20.6759 0.010204 0.057313 -1.731873
2008-05-28 13:51:49 51°28.524 2°55.581 20.6811 0.010204 0.057312 -1.731873
2008-05-28 13:52:49 51°28.42 2°55.275 20.6728 0.010204 0.05731 -1.731873
2008-05-28 13:53:49 51°28.316 2°54.968 20.6902 0.010204 0.057306 -1.731873
2008-05-28 13:54:49 51°28.21 2°54.665 20.6717 0.010204 0.057305 -1.731873
2008-05-28 13:55:49 51°28.106 2°54.359 20.698 0.010204 0.057301 -1.731873
2008-05-28 13:56:49 51°27.999 2°54.054 20.6851 0.010204 0.057298 -1.731873
2008-05-28 13:57:50 51°27.892 2°53.745 20.6903 0.010204 0.057296 -1.731873
2008-05-28 13:58:49 51°27.788 2°53.445 20.7112 0.010204 0.057294 -1.731873
2008-05-28 13:59:49 51°27.681 2°53.145 20.7065 0.010204 0.057293 -1.731873
2008-05-28 14:00:49 51°27.573 2°52.842 20.7116 0.010204 0.057291 -1.731873
2008-05-28 14:01:49 51°27.466 2°52.537 20.7142 0.010204 0.057285 -1.731873
2008-05-28 14:02:49 51°27.359 2°52.233 20.7058 0.010204 0.057283 -1.731873
2008-05-28 14:03:49 51°27.252 2°51.929 20.726 0.010204 0.057282 -1.731873
2008-05-28 14:04:49 51°27.14 2°51.629 20.7314 0.010204 0.057279 -1.731873
2008-05-28 14:05:49 51°27.028 2°51.327 20.7448 0.010204 0.057275 -1.731873
2008-05-28 14:06:50 51°26.912 2°51.026 20.7405 0.010204 0.057274 -1.731873
2008-05-28 14:07:50 51°26.794 2°50.734 20.7448 0.010204 0.057272 -1.731873
2008-05-28 14:08:49 51°26.68 2°50.446 20.7525 0.010204 0.057268 -1.731873
2008-05-28 14:09:49 51°26.564 2°50.156 20.7566 0.010204 0.057266 -1.731873
2008-05-28 14:10:49 51°26.446 2°49.866 20.7617 0.010204 0.057263 -1.731873
2008-05-28 14:11:49 51°26.33 2°49.574 20.7595 0.010204 0.057259 -1.731873
2008-05-28 14:12:49 51°26.214 2°49.283 20.7708 0.010204 0.057257 -1.731873
2008-05-28 14:13:50 51°26.092 2°48.991 20.7779 0.010204 0.057254 -1.731873
2008-05-28 14:14:50 51°25.961 2°48.717 20.7774 0.010204 0.057251 -1.731873
2008-05-28 14:15:50 51°25.826 2°48.45 20.7885 0.010204 0.057249 -1.731873
2008-05-28 14:16:49 51°25.679 2°48.209 20.7885 0.010204 0.057247 -1.731873
2008-05-28 14:17:50 51°25.503 2°48.008 20.7954 0.010204 0.057244 -1.731873
2008-05-28 14:18:49 51°25.321 2°47.856 20.8004 0.010204 0.057241 -1.731873
2008-05-28 14:19:49 51°25.128 2°47.725 20.8067 0.010204 0.057239 -1.731873
2008-05-28 14:20:50 51°24.932 2°47.602 20.8117 0.010204 0.057235 -1.731873
2008-05-28 14:21:49 51°24.734 2°47.537 20.8156 0.010204 0.057233 -1.731873
2008-05-28 14:22:50 51°24.531 2°47.558 20.8211 0.010204 0.057233 -1.731873
2008-05-28 14:23:49 51°24.351 2°47.665 20.8262 0.010204 0.057233 -1.731873
2008-05-28 14:24:50 51°24.171 2°47.79 20.8321 0.010204 0.057233 -1.731873
2008-05-28 14:25:49 51°23.996 2°47.908 20.8353 0.010204 0.057233 -1.731873
2008-05-28 14:26:50 51°23.811 2°48.028 20.8424 0.010204 0.057234 -1.731873
2008-05-28 14:27:49 51°23.631 2°48.139 20.8461 0.010204 0.057233 -1.731873
2008-05-28 14:28:49 51°23.448 2°48.253 20.8534 0.010204 0.057232 -1.731873
2008-05-28 14:29:50 51°23.26 2°48.369 20.8595 0.010204 0.05723 -1.731873
2008-05-28 14:30:49 51°23.076 2°48.48 20.8653 0.010204 0.057227 -1.731873
2008-05-28 14:31:50 51°22.886 2°48.598 20.8676 0.010204 0.057225 -1.731873
2008-05-28 14:32:49 51°22.698 2°48.713 20.8714 0.010204 0.057222 -1.731873
2008-05-28 14:33:50 51°22.505 2°48.837 20.8752 0.010204 0.057219 -1.731873
2008-05-28 14:34:49 51°22.32 2°48.957 20.8779 0.010204 0.057218 -1.731873
2008-05-28 14:35:49 51°22.133 2°49.08 20.8828 0.010204 0.057216 -1.731873
2008-05-28 14:36:49 51°21.946 2°49.199 20.886 0.010204 0.057214 -1.731873
2008-05-28 14:37:49 51°21.762 2°49.318 20.8915 0.010204 0.057212 -1.731873
2008-05-28 14:38:50 51°21.573 2°49.441 20.8954 0.010204 0.057209 -1.731873
2008-05-28 14:39:49 51°21.391 2°49.559 20.9017 0.010204 0.057208 -1.731873
2008-05-28 14:40:50 51°21.201 2°49.673 20.9049 0.010204 0.057204 -1.731873
2008-05-28 14:41:49 51°21.016 2°49.784 20.9088 0.010204 0.057201 -1.731873
2008-05-28 14:42:50 51°20.824 2°49.897 20.9143 0.010204 0.057199 -1.731873
2008-05-28 14:43:49 51°20.64 2°50.007 20.9207 0.010204 0.057197 -1.731873
2008-05-28 14:44:49 51°20.451 2°50.119 20.929 0.010204 0.057194 -1.731873
2008-05-28 14:45:50 51°20.258 2°50.233 20.9322 0.010204 0.057192 -1.731873
2008-05-28 14:46:49 51°20.072 2°50.348 20.9368 0.010204 0.057189 -1.731873
2008-05-28 14:47:50 51°19.88 2°50.466 20.9424 0.010204 0.057186 -1.731873
2008-05-28 14:48:49 51°19.694 2°50.583 20.9481 0.010204 0.057183 -1.731873
2008-05-28 14:49:50 51°19.501 2°50.7 20.9539 0.010204 0.05718 -1.731873
2008-05-28 14:50:49 51°19.325 2°50.839 20.9538 0.010204 0.057178 -1.731873
2008-05-28 14:51:50 51°19.208 2°51.101 20.9531 0.010204 0.057175 -1.731873
2008-05-28 14:52:50 51°19.089 2°51.357 20.9551 0.010204 0.057174 -1.731873
2008-05-28 14:53:50 51°18.957 2°51.597 20.9606 0.010204 0.057173 -1.731873
2008-05-28 14:54:50 51°18.773 2°51.729 20.962 0.010204 0.057172 -1.731873
2008-05-28 14:55:49 51°18.581 2°51.826 20.9654 0.010204 0.05717 -1.731873
2008-05-28 14:56:50 51°18.378 2°51.903 20.9718 0.010204 0.057168 -1.731873
2008-05-28 14:57:49 51°18.182 2°51.977 20.9764 0.010204 0.057165 -1.731873
2008-05-28 14:58:50 51°17.98 2°52.054 20.9809 0.010204 0.057162 -1.731873
2008-05-28 14:59:50 51°17.781 2°52.133 20.9897 0.010204 0.05716 -1.731873
2008-05-28 15:00:49 51°17.585 2°52.218 20.9907 0.010204 0.057156 -1.731873
2008-05-28 15:01:50 51°17.381 2°52.299 20.9975 0.010204 0.057152 -1.731873
2008-05-28 15:02:49 51°17.191 2°52.399 21.0031 0.010204 0.05715 -1.731873
2008-05-28 15:03:50 51°17.009 2°52.566 21.0132 0.010204 0.057146 -1.731873
2008-05-28 15:04:49 51°16.841 2°52.742 21.0158 0.010204 0.057143 -1.731873
2008-05-28 15:05:50 51°16.671 2°52.929 21.0266 0.010204 0.057141 -1.731873
2008-05-28 15:06:49 51°16.505 2°53.106 21.0297 0.010307 0.057664 -1.731873
2008-05-28 15:07:50 51°16.328 2°53.274 21.0374 0.010307 0.05766 -1.731873
2008-05-28 15:08:49 51°16.149 2°53.41 21.0419 0.010307 0.057658 -1.731873
2008-05-28 15:09:49 51°15.961 2°53.53 21.0488 0.010307 0.057655 -1.731873
2008-05-28 15:10:50 51°15.769 2°53.647 21.0588 0.010307 0.057652 -1.731873
2008-05-28 15:11:50 51°15.58 2°53.762 21.0631 0.010307 0.057649 -1.731873
2008-05-28 15:12:50 51°15.395 2°53.884 21.061 0.010307 0.057646 -1.731873
2008-05-28 15:13:49 51°15.213 2°54.003 21.0728 0.010307 0.057643 -1.731873
2008-05-28 15:14:50 51°15.028 2°54.14 21.0783 0.010307 0.05764 -1.731873
2008-05-28 15:15:50 51°14.853 2°54.293 21.0849 0.010307 0.057637 -1.731873
2008-05-28 15:16:50 51°14.698 2°54.499 21.0905 0.010307 0.057633 -1.731873
2008-05-28 15:17:50 51°14.563 2°54.736 21.0944 0.010307 0.057629 -1.731873
2008-05-28 15:18:49 51°14.44 2°54.987 21.107 0.010307 0.057626 -1.731873
2008-05-28 15:19:50 51°14.329 2°55.207 21.1097 0.010307 0.057622 -1.731873
2008-05-28 15:20:52 51°14.232 2°55.334 21.1226 0.010307 0.057618 -1.731873
2008-05-28 15:21:51 51°14.166 2°55.407 21.1247 0.010307 0.057614 -1.731873
2008-05-28 15:22:53 51°14.098 2°55.458 21.1385 0.010307 0.05761 -1.731873
2008-05-28 15:23:52 51°14.024 2°55.507 21.1438 0.010307 0.057605 -1.731873